Time;durP1;ratioP1;P1;durP2;ratioP2;P2;SDS_P1;SDS_P2;PMS_P1;PMS_P2;Temp;Humidity;BMP_temperature;BMP_pressure;BME280_temperature;BME280_humidity;BME280_pressure;Samples;Min_cycle;Max_cycle;Signal;HPM_P1;HPM_P2
2022/05/22 00:00:46;;;;;;;6.45;2.08;;;;;;;23.26;51.77;100743.28;1692381;83;21506;-49
2022/05/22 00:03:13;;;;;;;5.53;2.25;;;;;;;23.27;51.89;100747.62;1674354;85;21037;-48
2022/05/22 00:05:42;;;;;;;8.43;2.05;;;;;;;23.26;51.92;100755.23;1664774;84;21042;-47
2022/05/22 00:08:08;;;;;;;6.83;2.52;;;;;;;23.23;51.67;100764.27;1664247;84;21069;-49
2022/05/22 00:10:36;;;;;;;11.35;2.20;;;;;;;23.23;50.94;100761.61;1671454;84;21075;-46
2022/05/22 00:13:04;;;;;;;4.58;2.33;;;;;;;23.21;50.42;100773.30;1680438;84;21041;-51
2022/05/22 00:15:31;;;;;;;8.90;2.05;;;;;;;23.21;50.24;100781.26;1673341;84;21123;-49
2022/05/22 00:17:58;;;;;;;4.45;1.87;;;;;;;23.21;49.80;100783.91;1682923;85;21089;-47
2022/05/22 00:20:25;;;;;;;7.00;2.30;;;;;;;23.20;49.70;100793.70;1659942;84;21742;-48
2022/05/22 00:22:52;;;;;;;4.50;1.85;;;;;;;23.19;49.48;100791.14;1682582;83;21132;-47
2022/05/22 00:25:19;;;;;;;10.18;1.95;;;;;;;23.19;49.06;100798.64;1654915;85;21030;-48
2022/05/22 00:27:47;;;;;;;6.42;1.75;;;;;;;23.18;48.42;100794.77;1672173;84;21068;-47
2022/05/22 00:30:14;;;;;;;4.15;1.20;;;;;;;23.18;47.56;100808.05;1711799;83;21017;-47
2022/05/22 00:32:42;;;;;;;6.87;1.47;;;;;;;23.17;46.69;100804.54;1699118;84;21535;-48
2022/05/22 00:35:11;;;;;;;4.47;1.40;;;;;;;23.18;45.99;100810.70;1687879;84;21564;-47
2022/05/22 00:37:39;;;;;;;9.98;1.72;;;;;;;23.18;45.47;100818.67;1680704;85;21084;-48
2022/05/22 00:40:08;;;;;;;4.67;1.70;;;;;;;23.16;44.54;100821.41;1680876;85;21550;-46
2022/05/22 00:42:35;;;;;;;9.00;1.35;;;;;;;23.15;44.19;100811.77;1680314;85;21555;-48
2022/05/22 00:45:06;;;;;;;10.90;2.33;;;;;;;23.13;44.37;100807.05;1680788;85;21542;-48
2022/05/22 00:47:34;;;;;;;4.07;1.30;;;;;;;23.13;44.13;100811.50;1698648;83;21636;-48
2022/05/22 00:50:04;;;;;;;3.42;1.45;;;;;;;23.11;43.87;100822.71;1661188;84;21290;-48
2022/05/22 00:52:36;;;;;;;10.30;1.50;;;;;;;23.09;44.19;100818.00;1647545;85;20994;-45
2022/05/22 00:55:14;;;;;;;3.77;1.45;;;;;;;23.07;43.68;100813.28;1684093;84;21555;-48
2022/05/22 00:57:47;;;;;;;4.33;1.60;;;;;;;23.04;43.79;100815.66;1672852;84;21164;-49
2022/05/22 01:00:18;;;;;;;3.50;1.37;;;;;;;23.01;44.59;100817.70;1619824;86;21115;-48
2022/05/22 01:05:33;;;;;;;5.35;1.65;;;;;;;22.94;44.67;100809.80;1672981;84;21055;-50
2022/05/22 01:08:00;;;;;;;3.05;1.20;;;;;;;22.89;44.78;100806.17;1636108;85;21082;-46
2022/05/22 01:10:46;;;;;;;3.08;1.17;;;;;;;22.86;43.86;100806.85;1644230;85;21065;-48
2022/05/22 01:13:16;;;;;;;4.00;1.30;;;;;;;22.81;42.81;100798.39;1672845;84;21105;-48
2022/05/22 01:15:43;;;;;;;7.58;1.20;;;;;;;22.77;42.52;100800.42;1665175;84;21081;-49
2022/05/22 01:18:13;;;;;;;3.33;1.12;;;;;;;22.73;42.57;100795.44;1674419;84;21051;-48
2022/05/22 01:20:48;;;;;;;4.87;1.20;;;;;;;22.69;43.02;100786.83;1669459;84;21168;-45
2022/05/22 01:23:15;;;;;;;2.47;0.70;;;;;;;22.67;43.32;100798.53;1491341;94;21249;-48
2022/05/22 01:25:42;;;;;;;2.35;1.20;;;;;;;22.61;43.14;100787.38;1499332;94;21190;-45
2022/05/22 01:28:10;;;;;;;3.30;1.10;;;;;;;22.58;42.55;100790.27;1505560;93;21184;-46
2022/05/22 01:30:38;;;;;;;3.75;1.15;;;;;;;22.54;42.59;100796.72;1508399;93;21730;-48
2022/05/22 01:33:06;;;;;;;5.22;1.60;;;;;;;22.50;42.51;100791.23;1521910;93;21651;-50
2022/05/22 01:35:35;;;;;;;3.27;1.00;;;;;;;22.48;42.11;100787.84;1507907;94;21141;-48
2022/05/22 01:38:05;;;;;;;2.75;1.20;;;;;;;22.43;42.46;100786.00;1493914;94;21112;-48
2022/05/22 01:40:33;;;;;;;2.05;0.62;;;;;;;22.41;42.98;100792.36;1498750;94;21096;-45
2022/05/22 01:43:00;;;;;;;6.00;1.50;;;;;;;22.39;43.40;100785.85;1502994;92;21127;-49
2022/05/22 01:45:29;;;;;;;2.25;1.00;;;;;;;22.38;43.36;100794.74;1501493;94;21185;-48
2022/05/22 01:47:57;;;;;;;1.30;0.90;;;;;;;22.35;43.01;100784.38;1498431;96;21101;-45
2022/05/22 01:50:25;;;;;;;1.65;1.00;;;;;;;22.33;43.17;100778.80;1457067;97;21158;-45
2022/05/22 01:52:53;;;;;;;6.83;1.27;;;;;;;22.31;43.37;100782.03;1465106;95;21106;-47
2022/05/22 01:55:21;;;;;;;3.65;0.95;;;;;;;22.30;43.52;100778.99;1480768;96;21646;-51
2022/05/22 01:57:49;;;;;;;3.20;1.10;;;;;;;22.28;43.74;100788.39;1457680;96;21118;-48
2022/05/22 02:00:19;;;;;;;1.60;0.72;;;;;;;22.27;43.44;100790.69;1480529;93;21136;-46
2022/05/22 02:02:47;;;;;;;4.33;1.00;;;;;;;22.26;43.75;100788.12;1508547;92;21183;-45
2022/05/22 02:05:18;;;;;;;1.67;0.93;;;;;;;22.23;43.98;100790.53;1519915;93;21170;-50
2022/05/22 02:10:32;;;;;;;1.50;0.80;;;;;;;22.19;44.56;100803.63;1526012;94;21097;-48
2022/05/22 02:12:59;;;;;;;1.57;0.88;;;;;;;22.17;44.25;100805.53;1566383;90;21057;-47
2022/05/22 02:15:26;;;;;;;4.08;1.02;;;;;;;22.14;43.89;100805.73;1546939;90;21129;-47
2022/05/22 02:17:54;;;;;;;3.20;1.30;;;;;;;22.12;44.17;100802.80;1576330;90;21069;-48
2022/05/22 02:20:22;;;;;;;3.70;1.10;;;;;;;22.10;44.52;100804.24;1595082;87;21078;-46
2022/05/22 02:22:56;;;;;;;3.20;1.47;;;;;;;22.09;44.30;100805.18;1625697;87;21065;-48
2022/05/22 02:25:27;;;;;;;3.12;1.12;;;;;;;22.07;44.28;100810.23;1604385;87;21563;-47
2022/05/22 02:27:59;;;;;;;5.12;1.00;;;;;;;22.07;44.57;100801.79;1656591;83;21498;-48
2022/05/22 02:30:29;;;;;;;1.77;0.90;;;;;;;22.06;44.38;100797.45;1665983;85;21061;-45
2022/05/22 02:32:56;;;;;;;4.05;0.98;;;;;;;22.04;44.26;100793.20;1686226;84;21017;-48
2022/05/22 02:35:23;;;;;;;2.58;1.07;;;;;;;22.04;44.51;100802.02;1697190;83;21038;-48
2022/05/22 02:37:54;;;;;;;5.15;1.05;;;;;;;22.02;44.68;100788.02;1656481;84;21053;-48
2022/05/22 02:40:24;;;;;;;;;;;;;;;22.00;44.65;100797.88;1696625;83;21129;-48
2022/05/22 02:42:54;;;;;;;1.17;0.70;;;;;;;21.98;44.80;100793.16;1666167;84;20139;-48
2022/05/22 02:45:26;;;;;;;4.12;1.00;;;;;;;21.97;44.66;100792.77;1649958;84;21157;-46
2022/05/22 02:47:55;;;;;;;4.15;0.85;;;;;;;21.96;45.09;100791.09;1659900;84;21003;-47
2022/05/22 02:50:24;;;;;;;3.22;1.10;;;;;;;21.94;45.33;100787.70;1657566;84;21093;-48
2022/05/22 02:52:51;;;;;;;5.17;1.00;;;;;;;21.93;45.38;100783.34;1692962;84;21526;-51
2022/05/22 02:55:20;;;;;;;2.83;0.98;;;;;;;21.93;45.66;100772.73;1643453;85;21065;-48
2022/05/22 02:57:48;;;;;;;4.37;1.02;;;;;;;21.93;45.84;100779.86;1695825;83;21545;-50
2022/05/22 03:00:26;;;;;;;6.25;1.10;;;;;;;21.93;45.75;100775.39;1683601;85;21087;-45
2022/05/22 03:02:54;;;;;;;3.70;0.98;;;;;;;21.93;45.52;100780.69;1667056;84;21545;-47
2022/05/22 03:05:22;;;;;;;3.17;0.82;;;;;;;21.93;45.36;100783.84;1680954;84;21045;-48
2022/05/22 03:07:48;;;;;;;5.47;1.60;;;;;;;21.93;45.45;100780.69;1679891;84;21088;-48
2022/05/22 03:10:22;;;;;;;3.60;1.27;;;;;;;21.95;45.80;100789.37;1669350;85;21010;-45
2022/05/22 03:12:49;;;;;;;4.00;1.02;;;;;;;21.97;46.14;100795.42;1685874;83;21073;-48
2022/05/22 03:15:18;;;;;;;7.40;1.17;;;;;;;22.00;45.79;100794.38;1695881;83;21100;-48
2022/05/22 03:17:44;;;;;;;6.22;1.00;;;;;;;22.02;45.85;100789.81;1681819;84;21621;-51
2022/05/22 03:20:13;;;;;;;2.52;1.00;;;;;;;22.03;45.62;100787.05;1668738;84;21545;-48
2022/05/22 03:22:41;;;;;;;2.02;0.90;;;;;;;22.06;45.51;100784.20;1688503;83;21528;-45
2022/05/22 03:25:10;;;;;;;3.58;1.20;;;;;;;22.10;45.65;100798.09;1670052;85;21087;-48
2022/05/22 03:27:38;;;;;;;4.53;0.90;;;;;;;22.11;45.97;100794.03;1668152;85;21130;-48
2022/05/22 03:30:07;;;;;;;1.85;1.00;;;;;;;22.13;46.23;100797.42;1665289;84;21062;-45
2022/05/22 03:32:35;;;;;;;5.72;1.17;;;;;;;22.16;45.48;100789.71;1671101;84;21156;-45
2022/05/22 03:35:01;;;;;;;3.17;1.47;;;;;;;22.15;45.52;100786.23;1680811;85;21050;-46
2022/05/22 03:37:29;;;;;;;3.30;1.30;;;;;;;22.16;46.02;100777.31;1680716;85;21553;-50
2022/05/22 03:39:57;;;;;;;2.20;0.82;;;;;;;22.18;46.42;100780.70;1661464;84;21059;-50
2022/05/22 03:42:24;;;;;;;4.35;1.00;;;;;;;22.21;46.39;100780.51;1688354;83;21073;-48
2022/05/22 03:44:52;;;;;;;2.05;1.05;;;;;;;22.24;46.55;100785.58;1698018;83;21087;-49
2022/05/22 03:47:19;;;;;;;3.83;1.00;;;;;;;22.26;46.83;100786.33;1700444;83;21041;-48
2022/05/22 03:50:04;;;;;;;3.52;0.85;;;;;;;22.28;46.49;100771.16;1686331;84;21044;-48
2022/05/22 03:52:42;;;;;;;4.85;1.87;;;;;;;22.30;46.17;100769.25;1696446;83;21029;-46
2022/05/22 03:55:13;;;;;;;5.92;1.10;;;;;;;22.33;46.28;100766.40;1684406;83;21041;-47
2022/05/22 03:57:39;;;;;;;4.83;1.25;;;;;;;22.34;45.87;100773.38;1671323;84;21081;-48
2022/05/22 04:00:09;;;;;;;3.55;1.20;;;;;;;22.36;45.77;100767.49;1664317;85;21514;-45
2022/05/22 04:02:37;;;;;;;4.85;1.20;;;;;;;22.40;45.91;100769.47;1651803;85;21055;-48
2022/05/22 04:05:10;;;;;;;1.92;0.90;;;;;;;22.44;45.49;100770.95;1672266;84;21056;-46
2022/05/22 04:07:42;;;;;;;2.08;1.12;;;;;;;22.45;46.20;100773.48;1658067;84;21129;-48
2022/05/22 04:10:11;;;;;;;2.50;1.10;;;;;;;22.47;45.50;100768.92;1681681;84;21048;-46
2022/05/22 04:12:39;;;;;;;8.83;1.05;;;;;;;22.47;44.65;100776.88;1662718;84;21046;-49
2022/05/22 04:15:11;;;;;;;3.52;1.25;;;;;;;22.47;44.58;100782.18;1652895;84;21051;-49
2022/05/22 04:17:38;;;;;;;3.12;0.90;;;;;;;22.48;44.79;100783.86;1671941;84;21030;-48
2022/05/22 04:20:08;;;;;;;1.72;0.95;;;;;;;22.47;44.68;100790.14;1685571;83;21099;-47
2022/05/22 04:25:23;;;;;;;3.05;1.32;;;;;;;22.45;44.86;100781.91;1681010;85;21044;-50
2022/05/22 04:27:51;;;;;;;3.12;1.30;;;;;;;22.45;45.38;100789.39;1680407;85;21088;-47
2022/05/22 04:30:18;;;;;;;10.85;1.65;;;;;;;22.46;45.34;100791.58;1678295;84;21048;-49
2022/05/22 04:32:48;;;;;;;4.35;1.20;;;;;;;22.46;45.58;100784.45;1674951;85;21079;-46
2022/05/22 04:35:16;;;;;;;5.92;1.45;;;;;;;22.45;45.12;100784.09;1694298;84;21341;-49
2022/05/22 04:37:44;;;;;;;7.60;2.10;;;;;;;22.45;44.64;100780.59;1695585;83;21083;-49
2022/05/22 04:40:12;;;;;;;7.47;1.40;;;;;;;22.45;44.07;100773.48;1669566;84;21470;-49
2022/05/22 04:42:40;;;;;;;6.45;1.50;;;;;;;22.45;44.21;100786.74;1661028;85;20999;-48
2022/05/22 04:45:08;;;;;;;4.53;1.17;;;;;;;22.45;44.54;100789.39;1659062;84;21465;-47
2022/05/22 04:47:44;;;;;;;5.12;1.67;;;;;;;22.45;44.39;100790.72;1665660;83;21055;-49
2022/05/22 04:50:16;;;;;;;7.55;1.27;;;;;;;22.42;44.66;100794.90;1632953;85;21504;-49
2022/05/22 04:53:01;;;;;;;3.10;1.15;;;;;;;22.40;44.20;100798.64;1659461;84;21665;-46
2022/05/22 04:55:28;;;;;;;4.62;1.55;;;;;;;22.36;43.51;100787.38;1675433;84;20995;-49
2022/05/22 04:57:56;;;;;;;4.50;1.57;;;;;;;22.33;43.33;100783.63;1680641;84;21547;-50
2022/05/22 05:00:23;;;;;;;3.80;1.60;;;;;;;22.30;43.24;100783.83;1682018;84;21523;-49
2022/05/22 05:02:55;;;;;;;3.90;1.50;;;;;;;22.26;43.14;100774.39;1662809;84;21097;-46
2022/05/22 05:05:21;;;;;;;2.92;1.25;;;;;;;22.24;43.44;100780.28;1683268;84;21091;-46
2022/05/22 05:07:49;;;;;;;5.67;1.37;;;;;;;22.26;44.07;100784.14;1672992;84;21045;-49
2022/05/22 05:10:22;;;;;;;4.83;1.20;;;;;;;22.27;43.72;100785.38;1629214;86;21062;-46
2022/05/22 05:12:52;;;;;;;3.08;1.52;;;;;;;22.25;43.01;100784.64;1561085;89;21161;-47
2022/05/22 05:15:26;;;;;;;6.40;1.20;;;;;;;22.22;42.92;100781.33;1562289;90;21215;-47
2022/05/22 05:17:58;;;;;;;5.50;1.40;;;;;;;22.19;43.05;100787.72;1570756;89;21068;-49
2022/05/22 05:20:26;;;;;;;4.05;1.50;;;;;;;22.14;42.58;100782.34;1559502;89;21108;-50
2022/05/22 05:22:55;;;;;;;2.70;1.42;;;;;;;22.10;42.14;100779.53;1547253;90;21146;-46
2022/05/22 05:25:24;;;;;;;4.28;1.40;;;;;;;22.06;42.61;100781.56;1565446;90;21189;-49
2022/05/22 05:27:51;;;;;;;6.58;1.55;;;;;;;22.03;42.38;100783.58;1560107;90;21070;-47
2022/05/22 05:30:20;;;;;;;5.42;1.60;;;;;;;21.99;42.37;100780.27;1557670;90;21148;-49
2022/05/22 05:32:56;;;;;;;2.77;1.40;;;;;;;21.96;42.32;100776.52;1572648;89;21576;-48
2022/05/22 05:35:31;;;;;;;5.83;1.60;;;;;;;21.97;43.01;100782.67;1579571;89;21107;-52
2022/05/22 05:38:01;;;;;;;3.92;1.50;;;;;;;21.98;42.50;100784.36;1568967;89;21122;-49
2022/05/22 05:40:30;;;;;;;5.12;1.50;;;;;;;21.99;42.19;100784.74;1596844;88;21072;-46
2022/05/22 05:42:58;;;;;;;5.90;1.70;;;;;;;21.99;42.78;100780.27;1571671;88;21068;-48
2022/05/22 05:45:25;;;;;;;4.22;1.30;;;;;;;22.01;42.28;100777.03;1582949;88;21086;-46
2022/05/22 05:47:54;;;;;;;2.55;1.60;;;;;;;22.00;42.16;100774.03;1570882;88;21064;-49
2022/05/22 05:50:26;;;;;;;3.45;1.60;;;;;;;22.00;42.71;100776.68;1552821;90;21190;-47
2022/05/22 05:53:07;;;;;;;5.58;1.10;;;;;;;21.99;42.41;100769.67;1563970;89;21115;-48
2022/05/22 05:55:47;;;;;;;2.42;1.00;;;;;;;21.97;41.41;100768.92;1564331;89;21128;-50
2022/05/22 05:58:33;;;;;;;2.85;1.00;;;;;;;21.97;40.90;100772.08;1571490;89;21152;-49
2022/05/22 06:01:18;;;;;;;1.98;1.20;;;;;;;21.98;40.37;100767.98;1545928;91;21137;-46
2022/05/22 06:03:45;;;;;;;4.50;1.10;;;;;;;21.98;39.82;100770.64;1551034;91;21155;-49
2022/05/22 06:06:14;;;;;;;3.17;1.00;;;;;;;21.98;39.79;100767.98;1537571;91;21188;-51
2022/05/22 06:08:41;;;;;;;1.57;0.78;;;;;;;22.00;39.68;100767.88;1545019;91;21092;-46
2022/05/22 06:11:26;;;;;;;1.77;0.95;;;;;;;22.01;40.12;100765.11;1539282;92;21084;-45
2022/05/22 06:13:55;;;;;;;2.77;0.95;;;;;;;22.05;40.25;100769.25;1581484;89;21082;-46
2022/05/22 06:16:21;;;;;;;4.20;1.07;;;;;;;22.06;40.33;100772.28;1606497;88;21446;-50
2022/05/22 06:18:53;;;;;;;1.85;1.17;;;;;;;22.06;40.24;100768.30;1566553;90;21096;-49
2022/05/22 06:21:21;;;;;;;5.53;1.07;;;;;;;22.06;39.79;100769.63;1560483;90;21085;-49
2022/05/22 06:23:48;;;;;;;1.72;1.00;;;;;;;22.07;40.08;100763.36;1563609;90;21617;-49
2022/05/22 06:26:17;;;;;;;2.90;1.17;;;;;;;22.08;39.64;100764.22;1560101;90;21666;-48
2022/05/22 06:28:48;;;;;;;5.85;1.20;;;;;;;22.08;39.22;100765.08;1562751;90;21057;-50
2022/05/22 06:31:33;;;;;;;2.83;1.10;;;;;;;22.09;39.33;100764.10;1540015;91;21128;-51
2022/05/22 06:34:02;;;;;;;4.37;1.10;;;;;;;22.12;39.87;100757.28;1535324;91;21205;-46
2022/05/22 06:36:30;;;;;;;4.87;1.15;;;;;;;22.14;39.34;100759.81;1499545;94;21145;-46
2022/05/22 06:42:26;;;;;;;2.75;0.85;;;;;;;22.16;39.15;100752.14;1521079;93;21229;-46
2022/05/22 06:45:05;;;;;;;2.42;1.05;;;;;;;22.20;39.33;100752.30;1495390;95;21092;-46
2022/05/22 06:47:43;;;;;;;4.85;1.50;;;;;;;22.21;40.56;100750.03;1451642;97;21118;-49
2022/05/22 06:50:25;;;;;;;1.75;1.12;;;;;;;22.24;39.70;100753.77;1441976;98;21113;-46
2022/05/22 06:53:10;;;;;;;2.67;0.85;;;;;;;22.26;39.11;100749.21;1431196;99;21166;-49
2022/05/22 06:55:56;;;;;;;3.92;1.00;;;;;;;22.30;38.81;100746.72;1436722;98;21141;-46
2022/05/22 06:58:35;;;;;;;2.17;0.80;;;;;;;22.32;38.64;100747.45;1433470;98;22691;-49
2022/05/22 07:01:21;;;;;;;1.65;0.90;;;;;;;22.35;38.62;100744.60;1434671;98;21120;-46
2022/05/22 07:03:52;;;;;;;5.22;1.30;;;;;;;22.40;38.64;100751.73;1424435;99;21101;-50
2022/05/22 07:06:29;;;;;;;3.12;1.10;;;;;;;22.45;38.65;100745.64;1433953;97;21140;-49
2022/05/22 07:08:57;;;;;;;1.20;0.90;;;;;;;22.52;37.90;100752.69;1471335;96;21063;-49
2022/05/22 07:11:38;;;;;;;4.22;0.93;;;;;;;22.54;37.63;100739.70;1423734;98;21212;-47
2022/05/22 07:14:09;;;;;;;5.62;1.05;;;;;;;22.57;38.11;100735.48;1444875;96;21163;-50
2022/05/22 07:16:39;;;;;;;1.27;0.70;;;;;;;22.61;37.94;100736.99;1485445;94;22446;-49
2022/05/22 07:19:11;;;;;;;3.85;0.72;;;;;;;22.65;37.44;100732.30;1493289;94;21126;-49
2022/05/22 07:21:58;;;;;;;1.62;1.12;;;;;;;22.70;37.66;100731.52;1469589;96;21157;-49
2022/05/22 07:24:34;;;;;;;1.75;0.80;;;;;;;22.78;37.96;100725.64;1451561;96;21617;-49
2022/05/22 07:27:15;;;;;;;0.68;0.60;;;;;;;22.87;38.04;100726.31;1494062;94;21164;-46
2022/05/22 07:29:44;;;;;;;1.92;0.98;;;;;;;22.98;38.16;100724.55;1483203;96;21131;-48
2022/05/22 07:32:18;;;;;;;2.45;1.07;;;;;;;23.09;37.51;100723.30;1480073;95;21595;-49
2022/05/22 07:34:47;;;;;;;3.60;1.92;;;;;;;23.19;37.36;100729.62;1447808;98;21163;-47
2022/05/22 07:37:22;;;;;;;2.55;0.80;;;;;;;23.23;37.79;100726.24;1407460;101;21125;-47
2022/05/22 07:40:04;;;;;;;2.10;0.80;;;;;;;23.29;37.11;100733.75;1426306;100;21579;-50
2022/05/22 07:42:34;;;;;;;0.80;0.68;;;;;;;23.35;37.01;100731.99;1421449;100;21213;-49
2022/05/22 07:45:19;;;;;;;1.35;0.70;;;;;;;23.40;36.48;100728.53;1444436;98;21080;-48
2022/05/22 07:47:48;;;;;;;1.87;0.80;;;;;;;23.45;35.94;100721.08;1422148;99;21098;-49
2022/05/22 07:50:25;;;;;;;1.35;1.00;;;;;;;23.48;35.57;100723.48;1441442;96;21610;-49
2022/05/22 07:52:56;;;;;;;4.60;0.78;;;;;;;23.50;36.36;100725.54;1456618;97;21101;-48
2022/05/22 07:55:25;;;;;;;2.83;0.75;;;;;;;23.50;35.70;100721.55;1457306;97;21167;-46
2022/05/22 07:57:53;;;;;;;1.70;0.72;;;;;;;23.50;35.46;100718.90;1436975;99;21120;-49
2022/05/22 08:00:31;;;;;;;1.80;0.72;;;;;;;23.49;36.75;100719.88;1422633;99;21155;-47
2022/05/22 08:02:59;;;;;;;3.35;0.65;;;;;;;23.46;35.60;100724.08;1483622;96;21110;-49
2022/05/22 08:05:27;;;;;;;3.33;0.93;;;;;;;23.42;34.95;100708.02;1486444;96;21157;-47
2022/05/22 08:07:55;;;;;;;2.58;0.70;;;;;;;23.41;34.74;100706.34;1459738;97;21151;-47
2022/05/22 08:10:41;;;;;;;0.90;0.57;;;;;;;23.38;34.90;100711.86;1449128;99;21619;-49
2022/05/22 08:13:11;;;;;;;2.02;0.70;;;;;;;23.34;34.71;100701.11;1509850;94;21648;-48
2022/05/22 08:15:40;;;;;;;0.80;0.60;;;;;;;23.35;34.77;100698.80;1537501;92;21107;-51
2022/05/22 08:18:11;;;;;;;0.90;0.70;;;;;;;23.37;35.01;100699.53;1540037;92;21086;-50
2022/05/22 08:20:40;;;;;;;3.47;0.88;;;;;;;23.40;35.03;100696.19;1537886;92;21081;-49
2022/05/22 08:23:12;;;;;;;3.12;0.70;;;;;;;23.44;35.78;100682.19;1537234;92;21657;-49
2022/05/22 08:25:49;;;;;;;2.05;0.70;;;;;;;23.52;35.62;100690.41;1539970;92;21232;-49
2022/05/22 08:28:16;;;;;;;2.20;0.90;;;;;;;23.57;35.14;100690.92;1539587;92;21226;-46
2022/05/22 08:30:45;;;;;;;2.55;0.60;;;;;;;23.63;35.22;100690.45;1541361;92;21093;-50
2022/05/22 08:33:13;;;;;;;1.65;0.70;;;;;;;23.67;34.43;100686.59;1551454;92;21069;-48
2022/05/22 08:35:42;;;;;;;1.22;0.72;;;;;;;23.67;35.14;100675.97;1631495;84;21558;-49
2022/05/22 08:38:09;;;;;;;2.60;0.75;;;;;;;23.70;35.16;100682.36;1689836;84;21074;-49
2022/05/22 08:40:42;;;;;;;4.10;0.70;;;;;;;23.73;35.40;100670.18;1689450;84;21053;-46
2022/05/22 08:43:25;;;;;;;2.95;0.90;;;;;;;23.77;36.16;100676.09;1671135;84;21506;-48
2022/05/22 08:45:57;;;;;;;1.07;0.65;;;;;;;23.81;36.41;100670.90;1664822;84;21092;-49
2022/05/22 08:48:46;;;;;;;1.47;0.80;;;;;;;23.81;35.52;100670.42;1637151;85;21527;-49
2022/05/22 08:51:20;;;;;;;4.40;1.15;;;;;;;23.84;36.35;100668.88;1640278;86;21070;-48
2022/05/22 08:53:52;;;;;;;2.30;0.90;;;;;;;23.82;35.01;100664.13;1648123;86;21079;-48
2022/05/22 08:59:23;;;;;;;2.20;0.50;;;;;;;23.78;35.89;100661.34;1652207;86;20125;-46
2022/05/22 09:02:15;;;;;;;2.33;0.90;;;;;;;23.80;35.67;100659.92;1654168;85;21831;-46
2022/05/22 09:04:55;;;;;;;2.60;0.70;;;;;;;23.84;36.01;100660.91;1604904;88;21045;-47
2022/05/22 09:07:48;;;;;;;1.65;0.75;;;;;;;23.88;35.73;100647.73;1599863;88;21029;-47
2022/05/22 09:10:22;;;;;;;2.92;1.27;;;;;;;23.95;35.86;100645.42;1579152;90;21092;-46
2022/05/22 09:13:32;;;;;;;0.82;0.68;;;;;;;24.05;36.05;100645.11;1616935;87;21086;-47
2022/05/22 09:16:23;;;;;;;0.98;0.70;;;;;;;24.11;35.94;100638.80;1585240;88;21095;-49
2022/05/22 09:19:02;;;;;;;2.92;0.70;;;;;;;24.21;36.15;100635.77;1549679;89;21099;-46
2022/05/22 09:21:32;;;;;;;1.52;0.75;;;;;;;24.32;35.85;100636.75;1584426;89;21623;-49
2022/05/22 09:24:08;;;;;;;0.93;0.68;;;;;;;24.37;35.83;100630.08;1604891;87;21002;-48
2022/05/22 09:27:10;;;;;;;2.58;0.62;;;;;;;24.45;35.62;100630.30;1608495;88;21082;-49
2022/05/22 09:29:49;;;;;;;4.30;0.90;;;;;;;24.57;35.19;100632.44;1606127;88;21133;-48
2022/05/22 09:32:40;;;;;;;2.70;0.70;;;;;;;24.69;34.38;100628.80;1605651;87;21642;-51
2022/05/22 09:36:01;;;;;;;2.40;0.80;;;;;;;24.79;34.32;100628.44;1605412;87;21594;-46
2022/05/22 09:39:03;;;;;;;2.90;0.70;;;;;;;24.89;33.54;100612.88;1612822;87;21027;-49
2022/05/22 09:42:14;;;;;;;1.82;0.65;;;;;;;25.09;34.18;100618.36;1627805;87;21076;-49
2022/05/22 09:45:09;;;;;;;1.37;0.78;;;;;;;25.20;34.55;100613.84;1662736;84;21546;-46
2022/05/22 09:48:12;;;;;;;1.40;0.90;;;;;;;25.29;34.06;100598.40;1622080;88;21045;-49
2022/05/22 09:51:08;;;;;;;1.50;0.70;;;;;;;25.38;34.74;100604.28;1523298;92;21604;-49
2022/05/22 09:53:58;;;;;;;1.07;0.60;;;;;;;25.49;35.29;100606.89;1517258;92;21141;-47
2022/05/22 09:56:53;;;;;;;1.85;0.80;;;;;;;25.52;34.38;100593.31;1489264;95;21092;-48
2022/05/22 10:00:02;;;;;;;1.87;0.70;;;;;;;25.53;33.23;100583.00;1483230;95;21230;-49
2022/05/22 10:03:09;;;;;;;1.72;0.62;;;;;;;25.50;31.41;100587.76;1480259;95;21108;-47
2022/05/22 10:06:02;;;;;;;3.00;0.88;;;;;;;25.47;31.90;100594.70;1496644;94;21111;-48
2022/05/22 10:08:40;;;;;;;3.25;0.70;;;;;;;25.55;33.16;100583.74;1493996;94;21071;-47
2022/05/22 10:11:22;;;;;;;1.65;0.60;;;;;;;25.64;31.81;100580.26;1477386;95;21127;-48
2022/05/22 10:14:03;;;;;;;6.05;1.27;;;;;;;25.64;31.81;100580.26;1405816;100;21648;-49
2022/05/22 10:16:41;;;;;;;3.72;0.68;;;;;;;25.73;32.56;100575.47;1417901;101;21767;-46
2022/05/22 10:19:22;;;;;;;2.02;0.68;;;;;;;25.72;33.60;100577.77;1428447;100;21124;-49
2022/05/22 10:21:55;;;;;;;;;;;;;;;25.72;33.60;100577.77;1443455;97;21288;-49
2022/05/22 10:24:31;;;;;;;1.12;0.70;;;;;;;25.71;33.28;100566.77;1433637;98;20156;-50
2022/05/22 10:27:42;;;;;;;0.50;0.50;;;;;;;25.71;33.28;100566.77;1429678;98;21165;-48
2022/05/22 10:30:23;;;;;;;2.08;0.70;;;;;;;25.70;33.04;100561.55;1441139;98;21155;-47
2022/05/22 10:33:25;;;;;;;1.32;0.90;;;;;;;25.68;33.08;100561.69;1397872;100;21149;-46
2022/05/22 10:36:02;;;;;;;1.70;0.98;;;;;;;25.67;33.55;100561.36;1383901;101;21205;-47
2022/05/22 10:38:37;;;;;;;1.07;0.70;;;;;;;25.66;33.29;100550.33;1372983;102;21247;-47
2022/05/22 10:44:25;;;;;;;4.17;0.82;;;;;;;25.68;33.64;100552.84;1352928;103;21187;-49
2022/05/22 10:46:57;;;;;;;1.45;0.78;;;;;;;25.69;34.40;100556.73;1374836;100;21126;-49
2022/05/22 10:49:41;;;;;;;1.22;0.82;;;;;;;25.70;34.32;100551.73;1424839;99;21147;-50
2022/05/22 10:52:10;;;;;;;2.83;0.88;;;;;;;25.68;34.05;100548.37;1452678;95;21616;-49
2022/05/22 10:54:50;;;;;;;2.35;0.90;;;;;;;25.69;33.04;100551.41;1470672;96;21607;-49
2022/05/22 10:57:20;;;;;;;4.03;0.82;;;;;;;25.71;32.46;100549.45;1473712;96;21110;-47
2022/05/22 10:59:48;;;;;;;1.35;0.70;;;;;;;25.73;32.68;100542.16;1503075;92;21173;-50
2022/05/22 11:02:25;;;;;;;3.37;0.80;;;;;;;25.80;32.10;100546.47;1520899;93;21053;-47
2022/05/22 11:04:54;;;;;;;0.75;0.60;;;;;;;25.80;32.10;100546.47;1469941;95;21081;-48
2022/05/22 11:07:34;;;;;;;1.20;0.60;;;;;;;25.82;31.87;100544.00;1453541;98;21565;-50
2022/05/22 11:10:18;;;;;;;1.27;0.90;;;;;;;25.81;32.15;100532.99;1427113;99;21160;-49
2022/05/22 11:12:47;;;;;;;2.08;1.40;;;;;;;25.87;32.40;100540.08;1403120;101;21684;-49
2022/05/22 11:15:27;;;;;;;0.70;0.60;;;;;;;25.87;32.43;100530.75;1406551;100;21630;-49
2022/05/22 11:18:10;;;;;;;0.87;0.60;;;;;;;25.88;32.89;100543.11;1382725;101;21286;-49
2022/05/22 11:20:43;;;;;;;0.95;0.62;;;;;;;25.94;33.18;100538.57;1349442;104;21165;-48
2022/05/22 11:23:38;;;;;;;1.92;0.90;;;;;;;25.94;33.18;100538.57;1361033;104;21174;-47
2022/05/22 11:26:19;;;;;;;1.77;1.17;;;;;;;25.98;32.78;100537.31;1352421;104;21689;-50
2022/05/22 11:29:13;;;;;;;2.00;0.75;;;;;;;26.03;32.33;100533.77;1369596;103;21632;-47
2022/05/22 11:31:57;;;;;;;1.52;0.70;;;;;;;26.03;32.33;100533.77;1359976;103;21131;-48
2022/05/22 11:34:58;;;;;;;1.12;0.70;;;;;;;26.02;32.21;100537.39;1363626;104;21186;-49
2022/05/22 11:37:56;;;;;;;1.07;0.60;;;;;;;25.99;33.09;100532.35;1365690;103;21180;-47
2022/05/22 11:40:58;;;;;;;1.25;0.80;;;;;;;25.94;34.35;100529.23;1317897;107;21263;-47
2022/05/22 11:43:42;;;;;;;3.75;0.85;;;;;;;25.88;34.68;100513.80;1354679;104;21118;-49
2022/05/22 11:46:23;;;;;;;1.07;0.72;;;;;;;25.88;34.68;100513.80;1366116;103;21208;-49
2022/05/22 11:48:58;;;;;;;1.20;0.75;;;;;;;25.93;34.35;100520.88;1362107;104;21178;-47
2022/05/22 11:51:42;;;;;;;1.37;0.90;;;;;;;25.90;33.88;100506.50;1357030;103;21136;-48
2022/05/22 11:54:35;;;;;;;1.55;0.80;;;;;;;25.90;33.88;100506.50;1345351;105;21209;-49
2022/05/22 11:57:20;;;;;;;1.52;0.90;;;;;;;25.83;32.10;100512.38;1366513;102;21146;-46
2022/05/22 12:00:19;;;;;;;1.90;1.00;;;;;;;25.75;32.02;100503.38;1371542;103;21131;-49
2022/05/22 12:03:21;;;;;;;1.72;0.72;;;;;;;25.64;32.53;100502.98;1373370;102;21134;-49
2022/05/22 12:06:02;;;;;;;1.62;1.00;;;;;;;25.64;32.53;100502.98;1452692;96;21092;-50
2022/05/22 12:09:05;;;;;;;2.35;0.88;;;;;;;25.63;33.84;100510.64;1489477;94;21080;-47
2022/05/22 12:11:38;;;;;;;0.90;0.78;;;;;;;25.58;33.43;100508.85;1506249;94;21077;-50
2022/05/22 12:14:46;;;;;;;2.85;0.68;;;;;;;25.58;31.72;100498.67;1519055;93;21114;-49
2022/05/22 12:17:33;;;;;;;2.33;0.90;;;;;;;25.60;32.08;100508.23;1555410;90;21104;-49